Time;durP1;ratioP1;P1;durP2;ratioP2;P2;SDS_P1;SDS_P2;PMS_P1;PMS_P2;Temp;Humidity;BMP_temperature;BMP_pressure;BME280_temperature;BME280_humidity;BME280_pressure;Samples;Min_cycle;Max_cycle;Signal;HPM_P1;HPM_P2
2023/11/02 00:02:26;;;;;;;0.30;0.30;;;18.20;44.00;;;;;;6111095;23;20158;-87
2023/11/02 00:04:53;;;;;;;0.20;0.20;;;18.10;43.90;;;;;;6112059;23;20186;-87
2023/11/02 00:07:21;;;;;;;1.60;0.40;;;18.10;44.00;;;;;;6160747;23;20513;-86
2023/11/02 00:09:48;;;;;;;0.40;0.40;;;18.10;44.00;;;;;;6135542;23;20150;-87
2023/11/02 00:12:31;;;;;;;0.30;0.30;;;18.10;44.10;;;;;;6136324;23;20205;-86
2023/11/02 00:15:01;;;;;;;0.43;0.40;;;18.10;44.10;;;;;;6134833;23;20178;-86
2023/11/02 00:17:44;;;;;;;0.40;0.30;;;18.10;44.20;;;;;;6135141;23;20155;-87
2023/11/02 00:20:13;;;;;;;0.55;0.25;;;18.10;44.20;;;;;;6185400;23;20162;-87
2023/11/02 00:22:43;;;;;;;0.77;0.40;;;18.10;44.30;;;;;;6136657;23;20209;-86
2023/11/02 00:25:09;;;;;;;0.57;0.38;;;18.10;44.40;;;;;;6185478;23;20163;-86
2023/11/02 00:27:35;;;;;;;1.27;0.30;;;18.10;44.40;;;;;;6136184;23;20162;-87
2023/11/02 00:30:04;;;;;;;0.28;0.28;;;18.10;44.40;;;;;;6136481;23;20208;-86
2023/11/02 00:32:35;;;;;;;2.60;0.40;;;18.10;44.40;;;;;;6185214;23;20169;-86
2023/11/02 00:35:01;;;;;;;0.40;0.30;;;18.10;44.40;;;;;;6134797;23;20159;-86
2023/11/02 00:37:27;;;;;;;0.38;0.38;;;18.00;44.60;;;;;;6160002;23;20591;-87
2023/11/02 00:39:53;;;;;;;0.57;0.40;;;18.10;44.50;;;;;;6160522;23;20599;-86
2023/11/02 00:42:21;;;;;;;0.43;0.35;;;18.00;44.50;;;;;;6185472;23;20157;-87
2023/11/02 00:44:50;;;;;;;0.38;0.38;;;18.10;44.60;;;;;;6136077;23;20181;-88
2023/11/02 00:47:17;;;;;;;0.35;0.30;;;18.10;44.60;;;;;;6186929;23;20135;-88
2023/11/02 00:49:43;;;;;;;0.40;0.40;;;18.00;44.70;;;;;;6160012;23;20157;-87
2023/11/02 00:52:08;;;;;;;1.25;0.47;;;18.00;44.80;;;;;;6135700;23;20154;-89
2023/11/02 00:54:55;;;;;;;0.70;0.40;;;18.00;44.70;;;;;;6135638;23;20583;-87
2023/11/02 00:57:34;;;;;;;0.55;0.40;;;18.00;44.80;;;;;;6160250;23;20478;-87
2023/11/02 01:00:00;;;;;;;0.73;0.30;;;18.00;44.80;;;;;;6162878;23;20559;-86
2023/11/02 01:02:36;;;;;;;0.40;0.30;;;18.00;44.80;;;;;;6160473;23;20159;-86
2023/11/02 01:05:06;;;;;;;0.30;0.30;;;18.00;44.90;;;;;;6087118;23;20282;-86
2023/11/02 01:07:33;;;;;;;0.30;0.30;;;18.00;45.00;;;;;;6160225;23;20182;-86
2023/11/02 01:10:01;;;;;;;0.68;0.30;;;18.00;44.90;;;;;;6160594;23;20206;-87
2023/11/02 01:12:36;;;;;;;2.58;0.40;;;18.00;45.00;;;;;;6184863;23;20276;-87
2023/11/02 01:15:11;;;;;;;0.30;0.30;;;18.00;44.90;;;;;;6136323;23;20513;-87
2023/11/02 01:17:39;;;;;;;0.30;0.30;;;17.90;45.10;;;;;;6185318;23;20138;-87
2023/11/02 01:20:08;;;;;;;0.38;0.30;;;18.00;45.10;;;;;;6160182;23;20182;-88
2023/11/02 01:22:57;;;;;;;0.52;0.40;;;18.00;45.20;;;;;;6184833;23;20131;-87
2023/11/02 01:25:26;;;;;;;0.28;0.28;;;18.00;45.20;;;;;;6136328;23;20181;-87
2023/11/02 01:27:58;;;;;;;0.25;0.22;;;18.00;45.30;;;;;;6160814;23;20165;-86
2023/11/02 01:30:50;;;;;;;0.60;0.30;;;18.00;45.30;;;;;;6136339;23;20147;-87
2023/11/02 01:33:42;;;;;;;0.20;0.20;;;18.00;45.30;;;;;;6184605;23;20181;-86
2023/11/02 01:36:10;;;;;;;0.40;0.40;;;17.90;45.20;;;;;;6159992;23;20158;-87
2023/11/02 01:38:41;;;;;;;1.33;0.30;;;18.00;45.30;;;;;;6109553;23;20229;-86
2023/11/02 01:41:13;;;;;;;0.30;0.30;;;18.00;45.30;;;;;;6134781;23;20273;-87
2023/11/02 01:44:00;;;;;;;0.22;0.20;;;18.00;45.30;;;;;;6135933;23;20151;-86
2023/11/02 01:46:34;;;;;;;0.40;0.25;;;18.00;45.30;;;;;;6089394;23;20150;-87
2023/11/02 01:49:09;;;;;;;0.30;0.30;;;18.00;45.30;;;;;;6184643;23;20214;-87
2023/11/02 01:51:36;;;;;;;0.57;0.30;;;18.00;45.40;;;;;;6159940;23;20502;-88
2023/11/02 01:54:13;;;;;;;0.20;0.20;;;17.90;45.50;;;;;;6159472;23;20147;-87
2023/11/02 01:56:54;;;;;;;1.52;0.40;;;18.00;45.50;;;;;;6136778;23;20150;-87
2023/11/02 01:59:25;;;;;;;0.52;0.20;;;17.90;45.50;;;;;;6184475;23;20190;-87
2023/11/02 02:02:08;;;;;;;0.30;0.30;;;17.90;45.60;;;;;;6134855;23;20206;-86
2023/11/02 02:04:56;;;;;;;0.40;0.40;;;17.90;45.50;;;;;;6109828;23;20201;-87
2023/11/02 02:07:49;;;;;;;0.40;0.30;;;17.80;45.60;;;;;;6135279;23;20147;-86
2023/11/02 02:10:26;;;;;;;0.30;0.30;;;17.90;45.60;;;;;;6184347;23;20222;-86
2023/11/02 02:13:12;;;;;;;2.38;0.40;;;17.90;45.60;;;;;;6082841;23;20535;-86
2023/11/02 02:15:59;;;;;;;0.40;0.30;;;17.90;45.60;;;;;;6155818;23;20219;-86
2023/11/02 02:18:39;;;;;;;0.55;0.30;;;17.90;45.60;;;;;;6107988;23;20159;-86
2023/11/02 02:21:10;;;;;;;0.40;0.40;;;17.90;45.50;;;;;;6131962;23;20166;-87
2023/11/02 02:23:46;;;;;;;1.45;0.43;;;17.90;45.70;;;;;;6130327;23;20136;-87
2023/11/02 02:26:51;;;;;;;0.65;0.38;;;17.90;45.60;;;;;;6084179;23;20151;-86
2023/11/02 02:29:45;;;;;;;0.38;0.30;;;17.90;45.70;;;;;;6154621;23;20147;-86
2023/11/02 02:32:32;;;;;;;0.45;0.40;;;17.90;45.80;;;;;;6080247;23;20622;-86
2023/11/02 02:35:05;;;;;;;0.40;0.40;;;17.90;45.80;;;;;;6086815;23;20158;-86
2023/11/02 02:37:52;;;;;;;0.40;0.30;;;17.90;45.80;;;;;;6145067;23;20222;-86
2023/11/02 02:40:29;;;;;;;0.30;0.30;;;17.90;45.90;;;;;;6153996;23;20246;-86
2023/11/02 02:43:02;;;;;;;0.30;0.30;;;17.90;45.90;;;;;;6106327;23;20155;-86
2023/11/02 02:45:29;;;;;;;0.43;0.38;;;17.90;45.90;;;;;;6076116;23;20155;-87
2023/11/02 02:47:56;;;;;;;0.30;0.30;;;17.90;45.90;;;;;;6143806;23;20164;-87
2023/11/02 02:50:22;;;;;;;0.63;0.30;;;17.90;45.80;;;;;;6105074;23;20606;-87
2023/11/02 02:52:48;;;;;;;0.30;0.30;;;17.90;45.80;;;;;;6153831;23;20151;-86
2023/11/02 02:55:15;;;;;;;0.40;0.30;;;17.80;45.90;;;;;;6128514;23;20502;-86
2023/11/02 02:57:45;;;;;;;0.30;0.30;;;17.90;46.00;;;;;;6128887;23;20144;-86
2023/11/02 03:00:13;;;;;;;1.33;0.40;;;17.90;46.00;;;;;;6079333;23;20186;-87
2023/11/02 03:02:40;;;;;;;0.30;0.30;;;17.90;46.00;;;;;;6129235;23;20139;-87
2023/11/02 03:05:07;;;;;;;0.30;0.30;;;17.90;46.00;;;;;;6154209;23;20468;-86
2023/11/02 03:07:32;;;;;;;0.47;0.30;;;17.80;46.00;;;;;;6105216;23;20158;-87
2023/11/02 03:10:06;;;;;;;0.50;0.30;;;17.80;46.10;;;;;;6129804;23;20148;-87
2023/11/02 03:12:34;;;;;;;0.55;0.45;;;17.80;46.00;;;;;;6106340;23;20202;-87
2023/11/02 03:15:05;;;;;;;0.38;0.38;;;17.80;46.10;;;;;;6134841;23;20610;-88
2023/11/02 03:17:57;;;;;;;0.45;0.30;;;17.80;46.10;;;;;;6158887;23;20161;-87
2023/11/02 03:20:23;;;;;;;0.73;0.40;;;17.80;46.20;;;;;;6185425;23;20169;-87
2023/11/02 03:22:59;;;;;;;1.50;0.30;;;17.80;46.20;;;;;;6183685;23;20519;-86
2023/11/02 03:26:01;;;;;;;0.40;0.32;;;17.80;46.30;;;;;;6088555;23;20149;-87
2023/11/02 03:28:46;;;;;;;1.33;0.40;;;17.80;46.20;;;;;;6064914;23;20179;-86
2023/11/02 03:31:36;;;;;;;0.30;0.30;;;17.80;46.20;;;;;;5973663;23;20187;-86
2023/11/02 03:34:14;;;;;;;0.57;0.40;;;17.80;46.20;;;;;;6017841;23;20157;-87
2023/11/02 03:36:59;;;;;;;0.30;0.30;;;17.70;46.30;;;;;;6041409;23;20505;-87
2023/11/02 03:39:40;;;;;;;0.32;0.32;;;17.80;46.40;;;;;;6042464;23;20141;-86
2023/11/02 03:42:31;;;;;;;0.30;0.30;;;17.80;46.30;;;;;;5993789;23;20482;-86
2023/11/02 03:45:31;;;;;;;0.30;0.30;;;17.80;46.40;;;;;;6044333;23;20142;-87
2023/11/02 03:48:12;;;;;;;0.35;0.35;;;17.80;46.40;;;;;;5993489;23;20180;-86
2023/11/02 03:51:13;;;;;;;0.43;0.30;;;17.80;46.40;;;;;;6017749;23;20264;-87
2023/11/02 03:53:50;;;;;;;0.50;0.32;;;17.80;46.60;;;;;;5993015;23;20157;-87
2023/11/02 03:56:41;;;;;;;0.22;0.22;;;17.80;46.60;;;;;;6041258;23;20185;-88
2023/11/02 03:59:26;;;;;;;0.40;0.40;;;17.80;46.50;;;;;;6074675;23;20178;-87
2023/11/02 04:01:59;;;;;;;0.43;0.32;;;17.80;46.50;;;;;;6103627;23;20171;-87
2023/11/02 04:04:40;;;;;;;0.70;0.28;;;17.70;46.40;;;;;;6103995;23;20457;-86
2023/11/02 04:07:29;;;;;;;0.38;0.30;;;17.70;46.50;;;;;;6103700;23;20279;-88
2023/11/02 04:10:14;;;;;;;1.17;0.40;;;17.80;46.60;;;;;;6109112;23;20216;-88
2023/11/02 04:13:04;;;;;;;0.40;0.40;;;17.80;46.60;;;;;;6079627;23;20206;-87
2023/11/02 04:15:42;;;;;;;0.68;0.40;;;17.80;46.60;;;;;;6017470;23;20630;-87
2023/11/02 04:18:15;;;;;;;1.55;0.35;;;17.80;46.70;;;;;;6007613;23;20206;-87
2023/11/02 04:24:34;;;;;;;;;;;;;;;;;;;;;
2023/11/02 04:27:04;;;;;;;0.30;0.30;;;17.80;46.50;;;;;;5953155;24;20211;-87
2023/11/02 04:29:54;;;;;;;0.30;0.30;;;17.80;46.60;;;;;;5934769;24;20213;-88
2023/11/02 04:32:31;;;;;;;0.47;0.30;;;17.70;46.70;;;;;;5959398;24;20156;-87
2023/11/02 04:35:00;;;;;;;0.30;0.30;;;17.80;46.80;;;;;;5936151;24;20163;-87
2023/11/02 04:37:45;;;;;;;0.30;0.30;;;17.80;46.70;;;;;;5953638;24;20165;-87
2023/11/02 04:40:40;;;;;;;0.50;0.38;;;17.70;46.70;;;;;;5906342;24;20188;-89
2023/11/02 04:43:29;;;;;;;0.30;0.20;;;17.70;46.90;;;;;;5850387;24;20616;-88
2023/11/02 04:46:03;;;;;;;0.32;0.30;;;17.80;46.90;;;;;;5824231;24;20162;-86
2023/11/02 04:48:51;;;;;;;0.45;0.40;;;17.70;46.80;;;;;;5872807;24;20163;-87
2023/11/02 04:51:38;;;;;;;0.47;0.30;;;17.70;46.90;;;;;;5888115;24;20201;-88
2023/11/02 04:54:08;;;;;;;0.80;0.25;;;17.70;46.90;;;;;;5970389;23;20169;-87
2023/11/02 04:56:51;;;;;;;0.30;0.20;;;17.60;46.80;;;;;;5991438;23;20163;-88
2023/11/02 04:59:20;;;;;;;0.45;0.38;;;17.70;46.90;;;;;;6020250;23;20517;-88
2023/11/02 05:01:50;;;;;;;0.30;0.30;;;17.70;47.00;;;;;;6044072;23;20276;-88
2023/11/02 05:04:33;;;;;;;0.30;0.28;;;17.70;47.00;;;;;;6010101;23;20163;-87
2023/11/02 05:07:15;;;;;;;0.63;0.22;;;17.70;46.90;;;;;;5964199;24;20303;-88
2023/11/02 05:10:08;;;;;;;0.32;0.30;;;17.70;47.00;;;;;;5943054;24;20155;-87
2023/11/02 05:12:47;;;;;;;0.35;0.30;;;17.70;46.90;;;;;;5963085;24;20195;-87
2023/11/02 05:15:19;;;;;;;0.30;0.30;;;17.70;47.00;;;;;;5978095;23;20153;-87
2023/11/02 05:17:54;;;;;;;0.98;0.30;;;17.70;47.00;;;;;;6071559;23;20160;-88
2023/11/02 05:20:33;;;;;;;0.32;0.32;;;17.80;47.20;;;;;;6014127;23;20178;-87
2023/11/02 05:23:49;;;;;;;0.30;0.30;;;17.70;47.20;;;;;;6009898;23;20606;-88
2023/11/02 05:26:32;;;;;;;0.30;0.30;;;17.70;47.20;;;;;;5957875;24;20160;-87
2023/11/02 05:29:18;;;;;;;0.32;0.25;;;17.70;47.00;;;;;;5893743;24;21505;-88
2023/11/02 05:32:01;;;;;;;1.05;0.40;;;17.70;47.10;;;;;;5934571;24;20183;-87
2023/11/02 05:34:40;;;;;;;0.65;0.35;;;17.70;47.10;;;;;;5938020;24;20167;-88
2023/11/02 05:37:21;;;;;;;0.40;0.30;;;17.70;47.80;;;;;;5909293;24;20157;-87
2023/11/02 05:39:59;;;;;;;0.47;0.40;;;17.70;47.20;;;;;;5963876;24;20204;-88
2023/11/02 05:42:29;;;;;;;0.68;0.40;;;17.60;47.20;;;;;;5963531;24;20156;-88
2023/11/02 05:45:02;;;;;;;0.32;0.32;;;17.60;47.10;;;;;;5965102;24;20678;-87
2023/11/02 05:47:30;;;;;;;0.20;0.20;;;17.60;47.10;;;;;;5964301;24;20215;-88
2023/11/02 05:49:57;;;;;;;0.30;0.30;;;17.70;47.20;;;;;;5938929;24;20198;-87
2023/11/02 05:52:34;;;;;;;0.38;0.30;;;17.70;47.30;;;;;;5966352;23;20158;-88
2023/11/02 05:55:07;;;;;;;0.25;0.25;;;17.70;47.30;;;;;;5913040;24;20254;-87
2023/11/02 05:57:35;;;;;;;0.80;0.30;;;17.60;47.20;;;;;;5971240;24;20151;-87
2023/11/02 06:00:12;;;;;;;0.73;0.30;;;17.70;47.30;;;;;;5907872;24;20286;-87
2023/11/02 06:02:54;;;;;;;0.30;0.30;;;17.70;47.30;;;;;;5901909;24;20172;-88
2023/11/02 06:05:34;;;;;;;0.30;0.30;;;17.50;47.30;;;;;;5905234;24;20189;-87
2023/11/02 06:08:05;;;;;;;0.40;0.20;;;17.60;47.50;;;;;;5905171;24;20167;-87
2023/11/02 06:10:57;;;;;;;0.30;0.30;;;17.60;47.30;;;;;;5918807;24;20170;-89
2023/11/02 06:13:33;;;;;;;0.30;0.20;;;17.60;47.50;;;;;;5935638;24;20172;-89
2023/11/02 06:16:18;;;;;;;0.30;0.30;;;17.60;47.40;;;;;;5935261;24;20160;-88
2023/11/02 06:19:34;;;;;;;0.30;0.30;;;17.60;47.30;;;;;;5912123;24;20164;-88
2023/11/02 06:21:51;;;;;;;2.08;0.43;;;17.60;47.30;;;;;;5916174;24;20248;-87
2023/11/02 06:24:25;;;;;;;1.17;0.30;;;17.70;47.40;;;;;;5928530;24;20187;-88
2023/11/02 06:27:17;;;;;;;0.40;0.30;;;17.70;47.40;;;;;;5930122;24;20152;-87
2023/11/02 06:40:08;;;;;;;0.43;0.30;;;17.60;47.30;;;;;;6132578;23;20932;-88
2023/11/02 06:43:26;;;;;;;0.30;0.30;;;17.70;47.20;;;;;;6050570;23;20149;-88
2023/11/02 06:46:02;;;;;;;1.38;0.32;;;17.80;47.10;;;;;;5995244;23;20159;-88
2023/11/02 06:48:44;;;;;;;0.45;0.30;;;17.80;46.90;;;;;;5935272;24;20235;-89
2023/11/02 06:51:49;;;;;;;0.20;0.20;;;17.90;46.70;;;;;;5912729;24;20167;-88
2023/11/02 06:54:56;;;;;;;0.63;0.43;;;17.90;46.70;;;;;;5948159;24;20171;-88
2023/11/02 06:57:42;;;;;;;0.40;0.40;;;17.90;46.70;;;;;;5934902;24;20242;-89
2023/11/02 07:00:33;;;;;;;0.30;0.30;;;17.90;46.50;;;;;;5938358;24;20180;-88
2023/11/02 07:03:21;;;;;;;0.30;0.30;;;18.00;46.40;;;;;;5933433;24;20157;-89
2023/11/02 07:05:56;;;;;;;0.30;0.30;;;18.00;46.40;;;;;;5933448;24;20283;-89
2023/11/02 07:08:22;;;;;;;0.45;0.30;;;18.10;46.40;;;;;;5935560;24;20153;-88
2023/11/02 07:11:07;;;;;;;0.50;0.30;;;18.10;46.30;;;;;;5915301;24;20181;-88
2023/11/02 07:14:10;;;;;;;0.32;0.32;;;18.20;46.00;;;;;;5971619;23;20162;-87
2023/11/02 07:16:55;;;;;;;0.30;0.30;;;18.20;45.90;;;;;;6010682;23;20395;-88
2023/11/02 07:19:57;;;;;;;0.22;0.22;;;18.20;46.00;;;;;;6039938;23;20157;-88
2023/11/02 07:23:10;;;;;;;0.30;0.30;;;18.30;45.80;;;;;;6076437;23;20220;-88
2023/11/02 07:26:03;;;;;;;0.30;0.30;;;18.40;45.70;;;;;;5914683;24;20168;-88
2023/11/02 07:28:42;;;;;;;0.28;0.28;;;18.40;45.60;;;;;;5852799;24;20166;-88
2023/11/02 07:31:27;;;;;;;0.45;0.35;;;18.40;45.50;;;;;;5828325;24;20155;-88
2023/11/02 07:34:40;;;;;;;0.38;0.38;;;18.50;45.50;;;;;;5766024;24;20196;-88
2023/11/02 07:37:23;;;;;;;;;;;;;;;;;;;;;
2023/11/02 07:39:55;;;;;;;0.30;0.30;;;18.60;45.10;;;;;;5786602;24;20197;-89
2023/11/02 07:42:50;;;;;;;0.75;0.30;;;18.60;45.00;;;;;;5763994;24;20160;-89
2023/11/02 07:45:26;;;;;;;0.30;0.25;;;18.60;45.10;;;;;;5791382;24;20507;-88
2023/11/02 07:54:27;;;;;;;0.28;0.28;;;18.60;45.00;;;;;;5637607;25;20187;-87
2023/11/02 07:57:09;;;;;;;;;;;;;;;;;;;;;
2023/11/02 08:00:12;;;;;;;1.45;0.20;;;18.60;45.50;;;;;;5640577;25;20196;-89
2023/11/02 08:03:04;;;;;;;0.40;0.40;;;18.60;45.40;;;;;;5689686;25;20659;-90
2023/11/02 08:05:33;;;;;;;0.35;0.28;;;18.60;45.50;;;;;;5645442;25;20670;-87
2023/11/02 08:11:17;;;;;;;0.98;0.30;;;18.60;45.50;;;;;;5678921;25;20230;-86
2023/11/02 08:13:56;;;;;;;1.58;0.30;;;18.70;45.30;;;;;;5640320;25;20779;-87
2023/11/02 08:20:11;;;;;;;1.60;0.20;;;18.80;45.20;;;;;;5639923;25;20163;-87
2023/11/02 08:23:59;;;;;;;0.65;0.35;;;18.70;45.10;;;;;;5616607;25;20549;-87
2023/11/02 08:48:00;;;;;;;;;;;;;;;;;;;;;
2023/11/02 08:51:23;;;;;;;;;;;;;;;;;;;;;
2023/11/02 08:54:03;;;;;;;1.15;0.50;;;18.90;44.60;;;;;;5732375;24;20164;-89
2023/11/02 09:00:00;;;;;;;0.77;0.32;;;19.00;44.50;;;;;;5808794;24;20225;-90
2023/11/02 09:02:37;;;;;;;1.00;0.30;;;19.00;44.60;;;;;;5813932;24;20183;-90
2023/11/02 09:08:55;;;;;;;;;;;;;;;;;;;;;
2023/11/02 09:15:11;;;;;;;7.22;0.63;;;19.00;44.70;;;;;;5790222;24;20252;-88
2023/11/02 09:21:36;;;;;;;5.18;0.57;;;18.90;45.00;;;;;;5620356;25;20269;-87
2023/11/02 09:42:14;;;;;;;;;;;;;;;;;;;;;
2023/11/02 10:15:28;;;;;;;9.60;0.88;;;19.00;45.40;;;;;;6065125;23;20687;-88
2023/11/02 10:17:58;;;;;;;8.88;1.20;;;19.00;45.50;;;;;;5985461;24;20170;-88
2023/11/02 10:27:16;;;;;;;;;;;;;;;;;;;;;
2023/11/02 10:30:30;;;;;;;8.60;0.80;;;18.90;45.80;;;;;;5878108;24;20302;-88
2023/11/02 10:32:43;;;;;;;18.55;0.90;;;18.90;45.50;;;;;;5825804;24;20163;-87
2023/11/02 10:35:32;;;;;;;;;;;;;;;;;;;;;
2023/11/02 10:38:14;;;;;;;9.48;1.20;;;19.00;45.70;;;;;;5809606;24;20159;-87
2023/11/02 11:18:13;;;;;;;15.40;1.27;;;19.00;46.10;;;;;;6212978;23;20248;-85
2023/11/02 11:20:45;;;;;;;9.52;1.50;;;19.10;46.30;;;;;;6145162;23;20209;-86
2023/11/02 11:23:14;;;;;;;14.38;1.40;;;19.10;46.30;;;;;;6219723;23;20205;-86
2023/11/02 11:25:59;;;;;;;7.75;1.00;;;19.10;46.20;;;;;;6104465;23;20155;-87
2023/11/02 11:28:31;;;;;;;12.77;1.30;;;19.10;46.20;;;;;;6104449;23;20527;-85
2023/11/02 11:31:02;;;;;;;9.30;0.95;;;19.10;46.40;;;;;;6128720;23;20270;-85
2023/11/02 11:34:09;;;;;;;7.10;1.63;;;19.20;46.40;;;;;;6045488;23;20157;-86
2023/11/02 11:36:35;;;;;;;10.77;1.20;;;19.20;46.30;;;;;;5942997;24;20159;-87
2023/11/02 11:39:58;;;;;;;13.52;1.20;;;19.30;46.40;;;;;;5963357;24;20245;-90
2023/11/02 11:43:08;;;;;;;9.98;1.23;;;19.20;46.40;;;;;;5987191;24;20159;-88
2023/11/02 11:46:01;;;;;;;10.23;1.13;;;19.20;46.00;;;;;;5957997;24;20353;-89
2023/11/02 12:06:12;;;;;;;8.48;0.90;;;19.10;46.30;;;;;;5958231;24;20208;-90
2023/11/02 12:12:39;;;;;;;12.70;1.42;;;19.10;46.50;;;;;;5963272;24;20158;-89
2023/11/02 12:21:33;;;;;;;11.75;0.98;;;19.10;46.60;;;;;;5958799;24;20203;-88
2023/11/02 12:24:10;;;;;;;10.57;1.38;;;19.10;46.70;;;;;;5881002;24;20165;-88
2023/11/02 12:26:46;;;;;;;11.35;1.45;;;19.10;46.80;;;;;;5903096;24;20157;-87
2023/11/02 12:29:12;;;;;;;7.43;1.25;;;19.00;46.80;;;;;;5855285;24;20185;-87
2023/11/02 12:31:49;;;;;;;;;;;;;;;;;;;;;
2023/11/02 12:35:21;;;;;;;5.00;0.90;;;19.10;46.70;;;;;;5821387;24;20187;-87
2023/11/02 12:37:34;;;;;;;4.05;0.63;;;19.00;46.70;;;;;;5804600;24;20227;-90
2023/11/02 12:40:02;;;;;;;2.67;0.70;;;19.10;46.70;;;;;;5775185;24;20164;-88
2023/11/02 12:42:36;;;;;;;6.97;1.02;;;19.10;46.70;;;;;;5818306;24;20152;-88
2023/11/02 13:29:19;;;;;;;3.60;0.95;;;18.90;46.90;;;;;;6077439;23;20171;-86
2023/11/02 13:32:06;;;;;;;5.13;0.73;;;19.00;47.20;;;;;;5988694;24;20291;-86
2023/11/02 13:34:44;;;;;;;4.80;0.70;;;18.90;47.20;;;;;;5870977;24;20176;-87
2023/11/02 13:37:44;;;;;;;5.47;0.75;;;19.00;47.20;;;;;;5898940;24;20158;-90
2023/11/02 13:40:43;;;;;;;3.83;0.80;;;18.90;47.40;;;;;;5801124;24;20238;-88
2023/11/02 13:43:34;;;;;;;3.15;0.93;;;19.00;47.60;;;;;;5795553;24;20241;-88
2023/11/02 13:46:29;;;;;;;5.50;1.00;;;18.90;47.60;;;;;;5816665;24;20172;-88
2023/11/02 13:49:29;;;;;;;4.15;0.70;;;18.90;47.40;;;;;;5814035;24;20732;-89
2023/11/02 13:52:33;;;;;;;3.05;0.77;;;18.90;47.50;;;;;;5825945;24;20174;-87
2023/11/02 13:55:12;;;;;;;5.35;0.70;;;18.90;47.60;;;;;;5786955;24;20200;-89
2023/11/02 14:05:09;;;;;;;3.90;1.08;;;19.00;47.90;;;;;;5828387;24;20902;-88
2023/11/02 14:07:52;;;;;;;6.65;1.00;;;19.00;48.00;;;;;;5827405;24;20155;-89
2023/11/02 14:10:19;;;;;;;1.73;0.73;;;19.00;48.00;;;;;;5802252;24;20188;-89
2023/11/02 14:19:42;;;;;;;1.38;0.63;;;19.00;47.90;;;;;;5797165;24;20167;-89
2023/11/02 14:22:08;;;;;;;2.63;0.70;;;19.00;48.00;;;;;;5732984;24;20526;-87
2023/11/02 14:25:16;;;;;;;5.43;0.65;;;19.00;48.00;;;;;;5773385;24;20157;-89
2023/11/02 14:28:22;;;;;;;1.33;0.70;;;19.00;47.90;;;;;;5714982;25;20166;-89
2023/11/02 14:31:24;;;;;;;1.75;0.50;;;19.00;47.80;;;;;;5696923;25;20166;-87
2023/11/02 14:37:30;;;;;;;2.40;0.50;;;19.00;47.80;;;;;;5682894;25;20198;-88
2023/11/02 14:40:17;;;;;;;1.83;0.60;;;18.90;48.50;;;;;;5696484;25;20605;-88
2023/11/02 14:47:26;;;;;;;;;;;;;;;;;;;;;
2023/11/02 14:54:21;;;;;;;1.60;0.57;;;19.00;48.20;;;;;;5779372;24;20727;-88
2023/11/02 15:00:34;;;;;;;1.80;0.70;;;18.90;48.10;;;;;;5852691;24;20216;-87
2023/11/02 15:02:42;;;;;;;0.52;0.50;;;19.00;48.20;;;;;;5820587;24;20500;-87
2023/11/02 17:08:57;;;;;;;5.63;0.60;;;19.20;50.60;;;;;;6192654;23;20528;-87
2023/11/02 18:34:56;;;;;;;3.13;0.65;;;19.20;51.50;;;;;;6220389;22;20193;-86
2023/11/02 18:37:29;;;;;;;1.98;0.50;;;19.20;51.50;;;;;;6138707;23;20161;-88
2023/11/02 18:39:55;;;;;;;5.68;0.80;;;19.20;51.60;;;;;;6137009;23;20452;-88
2023/11/02 18:42:21;;;;;;;1.50;0.52;;;19.20;51.70;;;;;;6138318;23;20314;-86
2023/11/02 18:44:57;;;;;;;1.38;0.60;;;19.20;51.70;;;;;;6137500;23;20146;-89
2023/11/02 18:47:26;;;;;;;1.83;0.60;;;19.20;51.80;;;;;;6161878;23;20200;-88
2023/11/02 18:49:54;;;;;;;2.72;0.60;;;19.20;51.80;;;;;;6136937;23;20139;-86
2023/11/02 18:52:24;;;;;;;0.70;0.40;;;19.20;52.00;;;;;;6102435;23;20167;-87
2023/11/02 18:55:01;;;;;;;1.70;0.50;;;19.20;51.90;;;;;;6102587;23;20167;-87
2023/11/02 19:50:04;;;;;;;0.50;0.50;;;19.30;52.50;;;;;;6217321;22;20561;-88
2023/11/02 19:52:45;;;;;;;0.80;0.57;;;19.30;52.50;;;;;;6185318;23;20146;-88
2023/11/02 21:12:41;;;;;;;2.05;0.60;;;19.20;53.00;;;;;;6038053;23;20198;-87
2023/11/02 21:18:59;;;;;;;0.80;0.70;;;19.10;53.30;;;;;;5827822;24;20159;-89
2023/11/02 21:25:31;;;;;;;1.08;0.68;;;19.00;53.40;;;;;;5765962;24;20227;-89
2023/11/02 21:28:56;;;;;;;1.00;0.73;;;19.00;53.40;;;;;;5637213;25;20212;-87
2023/11/02 21:31:56;;;;;;;0.70;0.70;;;19.00;53.50;;;;;;5567360;25;20204;-89
2023/11/02 21:35:00;;;;;;;;;;;;;;;;;;;;;
2023/11/02 21:45:23;;;;;;;;;;;;;;;;;;;;;
2023/11/02 21:48:17;;;;;;;1.35;0.90;;;19.00;53.70;;;;;;5477383;26;20214;-87
2023/11/02 21:51:21;;;;;;;;;;;;;;;;;;;;;
2023/11/02 21:53:52;;;;;;;1.05;0.63;;;18.90;53.70;;;;;;5515818;25;20254;-88
2023/11/02 21:56:29;;;;;;;7.53;1.35;;;18.90;53.80;;;;;;5445601;26;20217;-88
2023/11/02 21:59:12;;;;;;;0.85;0.80;;;18.90;53.80;;;;;;5448709;26;20188;-86
2023/11/02 22:01:56;;;;;;;1.40;0.95;;;18.90;53.80;;;;;;5443134;26;20211;-88
2023/11/02 22:04:34;;;;;;;1.50;0.90;;;18.90;53.90;;;;;;5530043;25;20172;-85
2023/11/02 22:07:15;;;;;;;1.27;0.70;;;18.80;53.80;;;;;;5535428;25;20167;-85
2023/11/02 22:09:52;;;;;;;0.95;0.75;;;18.80;53.80;;;;;;5487194;26;20168;-87
2023/11/02 22:12:54;;;;;;;;;;;;;;;;;;;;;
2023/11/02 22:16:05;;;;;;;;;;;;;;;;;;;;;
2023/11/02 22:18:59;;;;;;;1.65;0.73;;;18.80;53.90;;;;;;5580497;25;20252;-86
2023/11/02 22:21:47;;;;;;;1.55;0.90;;;18.80;54.10;;;;;;5601255;25;20643;-89
2023/11/02 22:24:25;;;;;;;0.90;0.75;;;18.80;54.00;;;;;;5610874;25;20191;-86
2023/11/02 22:27:00;;;;;;;0.77;0.75;;;18.80;54.10;;;;;;5627349;25;20622;-87
2023/11/02 23:08:08;;;;;;;1.55;1.00;;;18.60;54.40;;;;;;6012647;23;20628;-89
2023/11/02 23:11:07;;;;;;;1.02;0.93;;;18.60;54.40;;;;;;6055385;23;20628;-89
2023/11/02 23:13:39;;;;;;;1.73;0.95;;;18.60;54.50;;;;;;6052484;23;20245;-87
2023/11/02 23:16:10;;;;;;;0.80;0.80;;;18.60;54.50;;;;;;6037496;23;20154;-88
